createdAt,value
2018-05-02T00:01:36.078Z,4.77
2018-05-02T00:04:39.418Z,4.77
2018-05-02T00:07:42.678Z,5.27
2018-05-02T00:10:46.016Z,5.83
2018-05-02T00:13:49.235Z,5.87
2018-05-02T00:16:52.506Z,5.30
2018-05-02T00:19:55.733Z,5.33
2018-05-02T00:22:59.000Z,4.20
2018-05-02T00:26:02.334Z,5.40
2018-05-02T00:29:06.122Z,5.67
2018-05-02T00:32:09.415Z,5.40
2018-05-02T00:35:12.653Z,6.10
2018-05-02T00:38:15.916Z,5.00
2018-05-02T00:41:19.199Z,5.07
2018-05-02T00:44:22.400Z,4.30
2018-05-02T00:47:25.672Z,4.57
2018-05-02T00:50:28.904Z,4.70
2018-05-02T00:53:32.184Z,5.77
2018-05-02T00:56:35.469Z,5.60
2018-05-02T00:59:38.679Z,5.63
2018-05-02T01:02:41.941Z,5.83
2018-05-02T01:05:45.146Z,6.00
2018-05-02T01:08:48.476Z,6.13
2018-05-02T01:11:51.707Z,5.90
2018-05-02T01:14:55.000Z,5.83
2018-05-02T01:17:58.312Z,5.60
2018-05-02T01:21:01.594Z,5.37
2018-05-02T01:24:04.903Z,5.40
2018-05-02T01:27:08.176Z,6.00
2018-05-02T01:30:11.437Z,5.53
2018-05-02T01:33:14.691Z,5.43
2018-05-02T01:36:17.998Z,6.07
2018-05-02T01:39:21.283Z,6.53
2018-05-02T01:42:25.650Z,6.63
2018-05-02T01:45:28.940Z,6.43
2018-05-02T01:48:32.132Z,6.60
2018-05-02T01:51:35.447Z,5.90
2018-05-02T01:54:38.759Z,5.77
2018-05-02T01:57:41.960Z,6.00
2018-05-02T02:00:45.217Z,6.87
2018-05-02T02:03:48.493Z,7.03
2018-05-02T02:06:51.766Z,6.07
2018-05-02T02:09:55.059Z,6.40
2018-05-02T02:12:59.428Z,5.80
2018-05-02T02:16:02.680Z,5.53
2018-05-02T02:19:05.885Z,5.80
2018-05-02T02:22:09.179Z,5.97
2018-05-02T02:25:12.380Z,6.17
2018-05-02T02:28:15.749Z,6.80
2018-05-02T02:31:19.126Z,8.00
2018-05-02T02:34:22.371Z,9.20
2018-05-02T02:37:25.652Z,8.10
2018-05-02T02:40:28.870Z,8.13
2018-05-02T02:43:32.163Z,7.07
2018-05-02T02:46:36.376Z,6.50
2018-05-02T02:49:39.571Z,5.67
2018-05-02T02:52:42.871Z,6.17
2018-05-02T02:55:46.098Z,10.27
2018-05-02T02:58:49.365Z,7.77
2018-05-02T03:01:52.575Z,10.23
2018-05-02T03:04:55.832Z,7.63
2018-05-02T03:07:59.163Z,5.20
2018-05-02T03:11:02.442Z,6.07
2018-05-02T03:14:05.719Z,6.07
2018-05-02T03:17:08.914Z,5.53
2018-05-02T03:20:12.195Z,9.93
2018-05-02T03:23:15.471Z,5.67
2018-05-02T03:26:18.671Z,6.70
2018-05-02T03:29:21.969Z,6.43
2018-05-02T03:32:25.175Z,7.03
2018-05-02T03:35:28.433Z,5.97
2018-05-02T03:38:31.774Z,6.00
2018-05-02T03:41:34.993Z,6.40
2018-05-02T03:44:38.243Z,7.50
2018-05-02T03:47:41.836Z,8.73
2018-05-02T03:50:45.096Z,9.30
2018-05-02T03:53:48.301Z,7.43
2018-05-02T03:56:51.591Z,7.00
2018-05-02T04:00:06.679Z,6.43
2018-05-02T04:03:21.520Z,7.33
2018-05-02T04:06:36.543Z,5.93
2018-05-02T04:09:39.756Z,6.70
2018-05-02T04:12:43.078Z,6.20
2018-05-02T04:15:46.359Z,6.50
2018-05-02T04:18:49.636Z,5.50
2018-05-02T04:21:52.872Z,6.77
2018-05-02T04:24:56.068Z,6.50
2018-05-02T04:27:59.329Z,6.73
2018-05-02T04:31:02.522Z,6.13
2018-05-02T04:34:05.812Z,6.97
2018-05-02T04:37:09.093Z,7.17
2018-05-02T04:40:12.310Z,6.73
2018-05-02T04:43:15.559Z,5.50
2018-05-02T04:46:18.742Z,5.77
2018-05-02T04:49:22.015Z,6.33
2018-05-02T04:52:25.281Z,5.80
2018-05-02T04:55:28.495Z,6.10
2018-05-02T04:58:31.766Z,7.10
2018-05-02T05:01:34.959Z,7.40
2018-05-02T05:04:38.229Z,5.83
2018-05-02T05:07:41.512Z,5.70
2018-05-02T05:10:44.733Z,6.43
2018-05-02T05:13:47.987Z,7.80
2018-05-02T05:16:51.183Z,7.17
2018-05-02T05:19:54.528Z,7.50
2018-05-02T05:22:57.722Z,6.67
2018-05-02T05:26:01.029Z,6.60
2018-05-02T05:29:04.301Z,6.63
2018-05-02T05:32:07.513Z,6.87
2018-05-02T05:35:10.791Z,6.53
2018-05-02T05:38:13.992Z,6.93
2018-05-02T05:41:17.250Z,6.60
2018-05-02T05:44:20.504Z,6.43
2018-05-02T05:47:23.723Z,5.90
2018-05-02T05:50:26.981Z,6.73
2018-05-02T05:53:30.203Z,6.70
2018-05-02T05:56:33.461Z,6.37
2018-05-02T05:59:36.747Z,7.17
2018-05-02T06:02:39.939Z,6.67
2018-05-02T06:05:43.206Z,6.10
2018-05-02T06:08:46.415Z,5.73
2018-05-02T06:11:49.710Z,6.00
2018-05-02T06:14:52.924Z,5.70
2018-05-02T06:17:56.196Z,5.47
2018-05-02T06:20:59.454Z,5.90
2018-05-02T06:24:02.659Z,6.33
2018-05-02T06:27:05.931Z,6.13
2018-05-02T06:30:09.126Z,6.00
2018-05-02T06:33:13.378Z,5.80
2018-05-02T06:36:16.636Z,5.67
2018-05-02T06:39:19.904Z,6.17
2018-05-02T06:42:23.174Z,5.90
2018-05-02T06:45:26.368Z,5.47
2018-05-02T06:48:29.615Z,5.10
2018-05-02T06:51:32.814Z,5.60
2018-05-02T06:54:36.091Z,5.57
2018-05-02T06:57:39.379Z,4.37
2018-05-02T07:00:42.576Z,5.53
2018-05-02T07:03:46.280Z,5.73
2018-05-02T07:06:49.467Z,5.20
2018-05-02T07:09:52.721Z,5.23
2018-05-02T07:12:55.985Z,5.80
2018-05-02T07:15:59.171Z,5.70
2018-05-02T07:19:02.433Z,5.67
2018-05-02T07:22:05.640Z,6.10
2018-05-02T07:25:08.902Z,5.50
2018-05-02T07:28:12.978Z,6.57
2018-05-02T07:31:16.170Z,6.40
2018-05-02T07:34:19.441Z,9.10
2018-05-02T07:37:22.890Z,6.10
2018-05-02T07:40:26.161Z,6.90
2018-05-02T07:43:29.371Z,7.33
2018-05-02T07:46:32.674Z,6.80
2018-05-02T07:49:35.931Z,5.90
2018-05-02T07:52:39.119Z,5.73
2018-05-02T07:55:42.391Z,5.73
2018-05-02T07:58:45.618Z,6.37
2018-05-02T08:01:48.898Z,5.53
2018-05-02T08:04:52.183Z,5.10
2018-05-02T08:07:55.381Z,5.70
2018-05-02T08:10:58.666Z,5.17
2018-05-02T08:14:01.879Z,4.87
2018-05-02T08:17:05.154Z,4.83
2018-05-02T08:20:08.477Z,5.03
2018-05-02T08:23:11.680Z,4.63
2018-05-02T08:26:15.008Z,3.63
2018-05-02T08:29:18.214Z,3.93
2018-05-02T08:32:21.490Z,3.67
2018-05-02T08:35:24.681Z,2.93
2018-05-02T08:38:27.988Z,3.37
2018-05-02T08:41:31.529Z,3.80
2018-05-02T08:44:34.726Z,3.33
2018-05-02T08:47:37.997Z,3.33
2018-05-02T08:50:41.194Z,3.00
2018-05-02T08:53:44.470Z,3.20
2018-05-02T08:56:47.799Z,3.30
2018-05-02T08:59:50.996Z,2.73
2018-05-02T09:02:54.259Z,2.80
2018-05-02T09:05:57.467Z,2.73
2018-05-02T09:09:00.744Z,3.20
2018-05-02T09:12:04.038Z,2.97
2018-05-02T09:15:07.313Z,3.80
2018-05-02T09:18:10.603Z,2.80
2018-05-02T09:21:14.868Z,3.30
2018-05-02T09:24:18.166Z,3.23
2018-05-02T09:27:21.376Z,2.70
2018-05-02T09:30:24.647Z,2.33
2018-05-02T09:33:27.931Z,2.40
2018-05-02T09:36:31.154Z,2.60
2018-05-02T09:39:34.443Z,2.80
2018-05-02T09:42:37.649Z,2.77
2018-05-02T09:45:41.212Z,2.73
2018-05-02T09:48:44.439Z,2.50
2018-05-02T09:51:47.751Z,2.57
2018-05-02T09:54:51.022Z,2.60
2018-05-02T09:57:54.223Z,2.77
2018-05-02T10:00:57.496Z,2.33
2018-05-02T10:04:00.929Z,2.23
2018-05-02T10:07:04.213Z,2.43
2018-05-02T10:10:07.485Z,2.93
2018-05-02T10:13:10.703Z,2.10
2018-05-02T10:16:13.976Z,2.70
2018-05-02T10:19:17.214Z,2.67
2018-05-02T10:22:20.483Z,2.20
2018-05-02T10:25:23.750Z,2.20
2018-05-02T10:28:26.955Z,2.03
2018-05-02T10:31:30.243Z,1.73
2018-05-02T10:34:33.798Z,2.03
2018-05-02T10:37:37.072Z,1.87
2018-05-02T10:40:40.271Z,1.90
2018-05-02T10:43:43.682Z,1.90
2018-05-02T10:46:46.990Z,2.00
2018-05-02T10:49:50.205Z,1.93
2018-05-02T10:52:53.463Z,2.23
2018-05-02T10:55:56.689Z,2.67
2018-05-02T10:59:00.024Z,2.60
2018-05-02T11:02:03.358Z,2.50
2018-05-02T11:05:06.576Z,2.10
2018-05-02T11:08:09.850Z,2.57
2018-05-02T11:11:13.066Z,2.37
2018-05-02T11:14:16.360Z,2.10
2018-05-02T11:17:20.421Z,2.20
2018-05-02T11:20:23.632Z,2.03
2018-05-02T11:23:26.934Z,2.00
2018-05-02T11:26:31.940Z,2.07
2018-05-02T11:29:35.846Z,1.97
2018-05-02T11:32:39.045Z,2.30
2018-05-02T11:35:42.322Z,2.10
2018-05-02T11:38:45.602Z,2.03
2018-05-02T11:41:48.821Z,2.00
2018-05-02T11:44:52.123Z,2.37
2018-05-02T11:47:55.334Z,2.00
2018-05-02T11:50:58.979Z,2.70
2018-05-02T11:54:02.252Z,3.20
2018-05-02T11:57:05.460Z,2.80
2018-05-02T12:00:08.728Z,3.00
2018-05-02T12:03:11.946Z,3.37
2018-05-02T12:06:15.261Z,3.70
2018-05-02T12:09:19.787Z,3.73
2018-05-02T12:12:23.002Z,3.33
2018-05-02T12:15:26.276Z,3.83
2018-05-02T12:18:29.491Z,3.83
2018-05-02T12:21:32.763Z,3.30
2018-05-02T12:24:36.061Z,3.50
2018-05-02T12:27:39.272Z,3.40
2018-05-02T12:30:42.582Z,3.53
2018-05-02T12:33:48.185Z,3.53
2018-05-02T12:36:51.475Z,3.10
2018-05-02T12:39:54.676Z,3.10
2018-05-02T12:42:57.978Z,3.33
2018-05-02T12:46:01.263Z,3.47
2018-05-02T12:49:04.490Z,3.13
2018-05-02T12:52:07.766Z,3.40
2018-05-02T12:55:10.962Z,3.90
2018-05-02T12:58:14.221Z,3.10
2018-05-02T13:01:17.545Z,3.00
2018-05-02T13:04:20.755Z,2.90
2018-05-02T13:07:24.048Z,2.60
2018-05-02T13:10:27.253Z,2.97
2018-05-02T13:13:30.544Z,3.10
2018-05-02T13:16:33.761Z,3.03
2018-05-02T13:19:37.073Z,3.40
2018-05-02T13:22:40.353Z,3.33
2018-05-02T13:25:43.558Z,3.07
2018-05-02T13:28:59.324Z,2.80
2018-05-02T13:32:18.629Z,3.83
2018-05-02T13:35:22.823Z,3.30
2018-05-02T13:38:26.100Z,2.80
2018-05-02T13:41:29.291Z,3.43
2018-05-02T13:44:35.553Z,3.13
2018-05-02T13:47:42.912Z,2.80
2018-05-02T13:50:46.318Z,3.03
2018-05-02T13:53:49.590Z,3.20
2018-05-02T14:00:09.205Z,2.80
2018-05-02T14:03:12.496Z,3.20
2018-05-02T14:06:15.776Z,4.20
2018-05-02T14:09:19.088Z,2.50
2018-05-02T14:12:22.297Z,2.70
2018-05-02T14:15:40.881Z,3.70
2018-05-02T14:18:52.558Z,2.50
2018-05-02T14:22:12.665Z,2.60
2018-05-02T14:28:43.978Z,2.90
2018-05-02T14:31:47.256Z,2.73
2018-05-02T14:34:53.524Z,2.80
2018-05-02T14:37:57.551Z,2.97
2018-05-02T14:41:12.315Z,3.30
2018-05-02T14:44:15.539Z,2.70
2018-05-02T14:47:18.817Z,2.50
2018-05-02T14:50:22.024Z,2.67
2018-05-02T14:53:25.299Z,2.80
2018-05-02T14:56:29.913Z,2.77
2018-05-02T14:59:33.498Z,2.63
2018-05-02T15:02:36.772Z,2.43
2018-05-02T15:05:39.982Z,2.60
2018-05-02T15:08:47.155Z,2.40
2018-05-02T15:11:50.642Z,2.57
2018-05-02T15:14:53.857Z,2.77
2018-05-02T15:17:57.178Z,2.67
2018-05-02T15:21:00.529Z,2.70
2018-05-02T15:24:03.818Z,2.53
2018-05-02T15:27:07.836Z,3.10
2018-05-02T15:30:31.933Z,3.13
2018-05-02T15:33:37.422Z,3.10
2018-05-02T15:36:40.639Z,3.10
2018-05-02T15:39:43.906Z,2.70
2018-05-02T15:42:47.236Z,2.63
2018-05-02T15:45:50.445Z,2.70
2018-05-02T15:48:53.757Z,2.80
2018-05-02T15:51:57.026Z,2.67
2018-05-02T15:55:00.414Z,2.40
2018-05-02T15:58:03.831Z,2.93
2018-05-02T16:01:07.077Z,3.03
2018-05-02T16:04:10.367Z,3.00
2018-05-02T16:07:14.477Z,3.67
2018-05-02T16:10:17.753Z,3.40
2018-05-02T16:13:20.962Z,3.37
2018-05-02T16:16:24.291Z,2.70
2018-05-02T16:19:27.602Z,2.60
2018-05-02T16:22:30.800Z,2.80
2018-05-02T16:25:34.084Z,2.50
2018-05-02T16:28:37.272Z,2.67
2018-05-02T16:31:40.539Z,2.50
2018-05-02T16:34:43.846Z,3.00
2018-05-02T16:37:47.047Z,2.90
2018-05-02T16:40:50.314Z,2.63
2018-05-02T16:43:56.169Z,3.13
2018-05-02T16:46:59.458Z,3.33
2018-05-02T16:50:02.734Z,3.47
2018-05-02T16:53:06.015Z,3.40
2018-05-02T16:56:09.298Z,3.60
2018-05-02T16:59:12.513Z,3.40
2018-05-02T17:02:15.790Z,3.97
2018-05-02T17:05:19.021Z,3.27
2018-05-02T17:08:22.320Z,3.40
2018-05-02T17:11:25.634Z,3.67
2018-05-02T17:14:28.834Z,3.70
2018-05-02T17:17:32.137Z,3.70
2018-05-02T17:20:35.343Z,3.87
2018-05-02T17:23:38.606Z,3.33
2018-05-02T17:26:41.878Z,3.37
2018-05-02T17:29:45.096Z,3.50
2018-05-02T17:32:48.383Z,4.00
2018-05-02T17:35:51.602Z,4.40
2018-05-02T17:38:54.857Z,4.00
2018-05-02T17:42:02.517Z,3.53
2018-05-02T17:45:05.826Z,4.53
2018-05-02T17:48:11.397Z,4.70
2018-05-02T17:51:14.635Z,15.97
2018-05-02T17:54:17.912Z,52.90
2018-05-02T17:57:21.125Z,48.63
2018-05-02T18:00:24.414Z,44.73
2018-05-02T18:03:27.699Z,14.70
2018-05-02T18:06:30.918Z,11.17
2018-05-02T18:09:34.180Z,6.07
2018-05-02T18:12:37.389Z,4.90
2018-05-02T18:15:40.675Z,4.60
2018-05-02T18:18:43.954Z,5.13
2018-05-02T18:21:47.151Z,3.97
2018-05-02T18:24:50.445Z,4.17
2018-05-02T18:27:53.654Z,4.33
2018-05-02T18:30:56.908Z,4.90
2018-05-02T18:34:00.130Z,5.07
2018-05-02T18:37:03.455Z,4.13
2018-05-02T18:40:06.758Z,4.20
2018-05-02T18:43:09.981Z,4.00
2018-05-02T18:46:15.349Z,4.07
2018-05-02T18:49:18.551Z,3.40
2018-05-02T18:52:21.827Z,3.30
2018-05-02T18:55:25.108Z,3.83
2018-05-02T18:58:28.358Z,3.70
2018-05-02T19:01:33.655Z,4.10
2018-05-02T19:04:36.865Z,4.37
2018-05-02T19:07:40.146Z,4.30
2018-05-02T19:10:43.416Z,4.80
2018-05-02T19:13:52.033Z,4.37
2018-05-02T19:16:55.295Z,4.67
2018-05-02T19:20:03.965Z,4.67
2018-05-02T19:23:07.253Z,4.37
2018-05-02T19:26:16.002Z,4.40
2018-05-02T19:29:19.216Z,4.53
2018-05-02T19:32:27.907Z,4.80
2018-05-02T19:35:32.224Z,4.40
2018-05-02T19:38:35.500Z,4.17
2018-05-02T19:41:44.315Z,3.93
2018-05-02T19:44:47.596Z,3.93
2018-05-02T19:47:50.863Z,4.40
2018-05-02T19:50:59.558Z,4.47
2018-05-02T19:54:02.841Z,3.80
2018-05-02T19:57:06.099Z,4.20
2018-05-02T20:00:14.956Z,3.97
2018-05-02T20:03:18.231Z,4.67
2018-05-02T20:06:21.960Z,4.77
2018-05-02T20:09:30.721Z,4.50
2018-05-02T20:12:39.516Z,4.13
2018-05-02T20:15:42.810Z,4.63
2018-05-02T20:18:46.068Z,4.33
2018-05-02T20:21:49.306Z,4.43
2018-05-02T20:24:52.581Z,4.60
2018-05-02T20:27:55.807Z,5.00
2018-05-02T20:30:59.092Z,5.03
2018-05-02T20:34:03.300Z,5.17
2018-05-02T20:37:06.563Z,4.70
2018-05-02T20:40:09.850Z,4.93
2018-05-02T20:43:13.058Z,4.67
2018-05-02T20:46:16.346Z,5.07
2018-05-02T20:49:19.558Z,4.30
2018-05-02T20:52:22.854Z,4.43
2018-05-02T20:55:26.078Z,4.63
2018-05-02T20:58:30.478Z,4.43
2018-05-02T21:01:33.749Z,4.90
2018-05-02T21:04:36.960Z,5.20
2018-05-02T21:07:40.236Z,4.80
2018-05-02T21:10:43.441Z,4.77
2018-05-02T21:13:46.718Z,4.90
2018-05-02T21:16:49.979Z,4.80
2018-05-02T21:19:53.181Z,5.40
2018-05-02T21:22:56.444Z,4.70
2018-05-02T21:25:59.653Z,4.70
2018-05-02T21:29:03.888Z,5.20
2018-05-02T21:32:07.177Z,5.20
2018-05-02T21:35:10.383Z,5.07
2018-05-02T21:38:13.671Z,5.03
2018-05-02T21:41:17.715Z,4.80
2018-05-02T21:44:21.010Z,5.13
2018-05-02T21:47:24.206Z,5.20
2018-05-02T21:50:27.491Z,5.50
2018-05-02T21:53:30.758Z,4.93
2018-05-02T21:56:33.963Z,5.57
2018-05-02T21:59:37.243Z,5.73
2018-05-02T22:02:41.712Z,5.70
2018-05-02T22:05:45.001Z,5.57
2018-05-02T22:08:48.259Z,5.13
2018-05-02T22:11:51.456Z,5.70
2018-05-02T22:14:54.736Z,5.00
2018-05-02T22:17:58.047Z,5.30
2018-05-02T22:21:01.315Z,4.87
2018-05-02T22:24:04.546Z,5.70
2018-05-02T22:27:07.836Z,5.00
2018-05-02T22:30:11.103Z,5.70
2018-05-02T22:33:14.392Z,4.97
2018-05-02T22:36:17.880Z,4.90
2018-05-02T22:39:21.082Z,5.17
2018-05-02T22:42:24.361Z,4.83
2018-05-02T22:45:27.623Z,5.47
2018-05-02T22:48:30.820Z,6.00
2018-05-02T22:51:34.088Z,5.87
2018-05-02T22:54:37.299Z,5.47
2018-05-02T22:57:40.560Z,5.43
2018-05-02T23:00:45.622Z,5.50
2018-05-02T23:03:48.833Z,5.47
2018-05-02T23:06:52.118Z,5.20
2018-05-02T23:09:55.329Z,6.70
2018-05-02T23:12:58.596Z,6.27
2018-05-02T23:16:01.806Z,6.23
2018-05-02T23:19:05.082Z,5.80
2018-05-02T23:22:08.340Z,6.40
2018-05-02T23:25:11.535Z,6.60
2018-05-02T23:28:14.833Z,5.90
2018-05-02T23:31:18.048Z,5.77
2018-05-02T23:34:21.315Z,5.40
2018-05-02T23:37:24.588Z,5.90
2018-05-02T23:40:27.792Z,6.80
2018-05-02T23:43:31.063Z,7.13
2018-05-02T23:46:34.259Z,6.97
2018-05-02T23:49:37.564Z,6.10
2018-05-02T23:52:40.842Z,5.53
2018-05-02T23:55:44.036Z,5.43
2018-05-02T23:58:47.302Z,5.93
